首页
METAR-TAF:

METAR-TAF

机场 :

Black River Falls, 威斯康辛州, 美国

纬度: 44-15-03N, 经度: 090-51-19W, 海拔: 255米

当前天气观测

该预报发布于16分钟前的20:55 UTC
风速9节,风向西,有时为16节阵风
温度 -7°C
湿度 79%
气压 1010 hPa
能見度: 11.3公里
阴天层高于1900英尺
小雪

METAR: KBCK 142055Z AUTO 28009G16KT 7SM -SN OVC019 M07/M10 A2983 RMK AO2 T10681101

时间: 15:11 (21:11 UTC)


TAF: 丢失

超过4000个机场的气象观测和天气预报(METAR&TAF报告)。

可查询的气象台以黄色和红色小点在地图上表示。

将鼠标移到小点上方,可查看气象台名称。

然后点击查看天气观测和预报。

如需切换地图:点击带黑十字的绿色按钮放大地图;点击带横线的绿色按钮缩小地图;或者点击绿色箭头查看邻近地区的地图。


METAR-TAF: